地図

経路データ

SID SEASON NUMBER BASIN SUBBASIN NAME ISO_TIME NATURE LAT LON WMO_WIND WMO_PRES WMO_AGENCY TRACK_TYPE DIST2LAND LANDFALL IFLAG USA_AGENCY USA_ATCF_ID USA_LAT USA_LON USA_RECORD USA_STATUS USA_WIND USA_PRES USA_SSHS USA_R34_NE USA_R34_SE USA_R34_SW USA_R34_NW USA_R50_NE USA_R50_SE USA_R50_SW USA_R50_NW USA_R64_NE USA_R64_SE USA_R64_SW USA_R64_NW USA_POCI USA_ROCI USA_RMW USA_EYE TOKYO_LAT TOKYO_LON TOKYO_GRADE TOKYO_WIND TOKYO_PRES TOKYO_R50_DIR TOKYO_R50_LONG TOKYO_R50_SHORT TOKYO_R30_DIR TOKYO_R30_LONG TOKYO_R30_SHORT TOKYO_LAND CMA_LAT CMA_LON CMA_CAT CMA_WIND CMA_PRES HKO_LAT HKO_LON HKO_CAT HKO_WIND HKO_PRES NEWDELHI_LAT NEWDELHI_LON NEWDELHI_GRADE NEWDELHI_WIND NEWDELHI_PRES NEWDELHI_CI NEWDELHI_DP NEWDELHI_POCI REUNION_LAT REUNION_LON REUNION_TYPE REUNION_WIND REUNION_PRES REUNION_TNUM REUNION_CI REUNION_RMW REUNION_R34_NE REUNION_R34_SE REUNION_R34_SW REUNION_R34_NW REUNION_R50_NE REUNION_R50_SE REUNION_R50_SW REUNION_R50_NW REUNION_R64_NE REUNION_R64_SE REUNION_R64_SW REUNION_R64_NW BOM_LAT BOM_LON BOM_TYPE BOM_WIND BOM_PRES BOM_TNUM BOM_CI BOM_RMW BOM_R34_NE BOM_R34_SE BOM_R34_SW BOM_R34_NW BOM_R50_NE BOM_R50_SE BOM_R50_SW BOM_R50_NW BOM_R64_NE BOM_R64_SE BOM_R64_SW BOM_R64_NW BOM_ROCI BOM_POCI BOM_EYE BOM_POS_METHOD BOM_PRES_METHOD NADI_LAT NADI_LON NADI_CAT NADI_WIND NADI_PRES WELLINGTON_LAT WELLINGTON_LON WELLINGTON_WIND WELLINGTON_PRES DS824_LAT DS824_LON DS824_STAGE DS824_WIND DS824_PRES TD9636_LAT TD9636_LON TD9636_STAGE TD9636_WIND TD9636_PRES TD9635_LAT TD9635_LON TD9635_WIND TD9635_PRES TD9635_ROCI NEUMANN_LAT NEUMANN_LON NEUMANN_CLASS NEUMANN_WIND NEUMANN_PRES MLC_LAT MLC_LON MLC_CLASS MLC_WIND MLC_PRES USA_GUST BOM_GUST BOM_GUST_PER REUNION_GUST REUNION_GUST_PER USA_SEAHGT USA_SEARAD_NE USA_SEARAD_SE USA_SEARAD_SW USA_SEARAD_NW STORM_SPEED STORM_DIR
1915339N10131 1915 53 WP MM NOT_NAMED 1915-12-04 22:00:00 NR 10.0000 130.600 main 490 450 __________O___ -1 10.0000 130.600 7 11 280
1915339N10131 1915 53 WP MM NOT_NAMED 1915-12-05 00:00:00 NR 10.0600 130.238 main 450 399 __________P___ -1 10.0600 130.238 7 11 280
1915339N10131 1915 53 WP MM NOT_NAMED 1915-12-05 03:00:00 NR 10.1584 129.692 main 399 341 __________P___ -1 10.1584 129.692 7 11 282
1915339N10131 1915 53 WP MM NOT_NAMED 1915-12-05 06:00:00 NR 10.2793 129.143 main 341 295 __________P___ -1 10.2793 129.143 7 11 284
1915339N10131 1915 53 WP MM NOT_NAMED 1915-12-05 09:00:00 NR 10.4369 128.587 main 295 281 __________P___ -1 10.4369 128.587 7 11 287
1915339N10131 1915 53 WP MM NOT_NAMED 1915-12-05 10:00:00 NR 10.5000 128.400 main 281 244 __________O___ -1 10.5000 128.400 7 12 290
1915339N10131 1915 53 WP MM NOT_NAMED 1915-12-05 12:00:00 NR 10.6434 128.024 main 244 186 __________P___ -1 10.6434 128.024 7 12 293
1915339N10131 1915 53 WP MM NOT_NAMED 1915-12-05 15:00:00 NR 10.8902 127.472 main 186 131 __________P___ -1 10.8902 127.472 7 12 296
1915339N10131 1915 53 WP MM NOT_NAMED 1915-12-05 18:00:00 NR 11.1555 126.962 main 132 88 __________P___ -1 11.1555 126.962 7 11 300
1915339N10131 1915 53 WP MM NOT_NAMED 1915-12-05 21:00:00 NR 11.4173 126.524 main 88 86 __________P___ -1 11.4173 126.524 7 10 302
1915339N10131 1915 53 WP MM NOT_NAMED 1915-12-05 22:00:00 NR 11.5000 126.400 main 86 69 __________O___ -1 11.5000 126.400 2 8 306
1915339N10131 1915 53 WP MM NOT_NAMED 1915-12-06 00:00:00 NR 11.6522 126.195 main 73 55 __________P___ -1 11.6522 126.195 2 7 311
1915339N10131 1915 53 WP MM NOT_NAMED 1915-12-06 03:00:00 NR 11.8685 125.964 main 58 34 __________P___ -1 11.8685 125.964 2 6 317
1915339N10131 1915 53 WP MM NOT_NAMED 1915-12-06 06:00:00 NR 12.0674 125.793 main 34 10 __________P___ -1 12.0674 125.793 2 5 321
1915339N10131 1915 53 WP MM NOT_NAMED 1915-12-06 09:00:00 NR 12.2457 125.648 main 10 15 __________P___ -1 12.2457 125.648 2 5 321
1915339N10131 1915 53 WP MM NOT_NAMED 1915-12-06 10:00:00 NR 12.3000 125.600 main 15 15 __________O___ -1 12.3000 125.600 2 4 317
1915339N10131 1915 53 WP MM NOT_NAMED 1915-12-06 12:00:00 NR 12.4003 125.498 main 21 15 __________P___ -1 12.4003 125.498 2 4 314
1915339N10131 1915 53 WP MM NOT_NAMED 1915-12-06 15:00:00 NR 12.5319 125.353 main 15 10 __________P___ -1 12.5319 125.353 2 4 309
1915339N10131 1915 53 WP MM NOT_NAMED 1915-12-06 18:00:00 NR 12.6492 125.191 main 11 22 __________P___ -1 12.6492 125.191 2 4 303
1915339N10131 1915 53 WP MM NOT_NAMED 1915-12-06 21:00:00 NR 12.7619 124.984 main 33 33 __________P___ -1 12.7619 124.984 2 5 298
1915339N10131 1915 53 WP MM NOT_NAMED 1915-12-06 22:00:00 NR 12.8000 124.900 main 33 33 __________O___ -1 12.8000 124.900 2 6 292
1915339N10131 1915 53 WP MM NOT_NAMED 1915-12-07 00:00:00 NR 12.8782 124.698 main 46 21 __________P___ -1 12.8782 124.698 2 7 290
1915339N10131 1915 53 WP MM NOT_NAMED 1915-12-07 03:00:00 NR 12.9952 124.345 main 21 10 __________P___ -1 12.9952 124.345 2 8 288
1915339N10131 1915 53 WP MM NOT_NAMED 1915-12-07 06:00:00 NR 13.1176 123.951 main 11 0 __________P___ -1 13.1176 123.951 2 8 288
1915339N10131 1915 53 WP MM NOT_NAMED 1915-12-07 09:00:00 NR 13.2516 123.538 main 0 0 __________P___ -1 13.2516 123.538 2 9 289
1915339N10131 1915 53 WP MM NOT_NAMED 1915-12-07 10:00:00 NR 13.3000 123.400 main 0 0 __________O___ -1 13.3000 123.400 2 8 290
1915339N10131 1915 53 WP MM NOT_NAMED 1915-12-07 12:00:00 NR 13.3946 123.141 main 10 10 __________P___ -1 13.3946 123.141 2 8 291
1915339N10131 1915 53 WP MM NOT_NAMED 1915-12-07 15:00:00 NR 13.5490 122.747 main 10 0 __________P___ -1 13.5490 122.747 2 8 293
1915339N10131 1915 53 WP MM NOT_NAMED 1915-12-07 18:00:00 NR 13.7240 122.346 main 0 0 __________P___ -1 13.7240 122.346 2 9 296
1915339N10131 1915 53 WP MM NOT_NAMED 1915-12-07 21:00:00 NR 13.9257 121.938 main 10 0 __________P___ -1 13.9257 121.938 2 9 297
1915339N10131 1915 53 WP MM NOT_NAMED 1915-12-07 22:00:00 NR 14.0000 121.800 main 0 0 __________O___ -1 14.0000 121.800 2 10 301
1915339N10131 1915 53 WP MM NOT_NAMED 1915-12-08 00:00:00 NR 14.1735 121.520 main 0 0 __________P___ -1 14.1735 121.520 2 10 304
1915339N10131 1915 53 WP MM NOT_NAMED 1915-12-08 03:00:00 NR 14.4594 121.093 main 0 0 __________P___ -1 14.4594 121.093 2 10 305
1915339N10131 1915 53 WP MM NOT_NAMED 1915-12-08 06:00:00 NR 14.7510 120.665 main 0 0 __________P___ -1 14.7510 120.665 2 10 304
1915339N10131 1915 53 WP MM NOT_NAMED 1915-12-08 09:00:00 NR 15.0201 120.240 main 0 0 __________P___ -1 15.0201 120.240 2 10 303
1915339N10131 1915 53 WP MM NOT_NAMED 1915-12-08 10:00:00 NR 15.1000 120.100 main 0 0 __________O___ -1 15.1000 120.100 2 9 297
1915339N10131 1915 53 WP MM NOT_NAMED 1915-12-08 12:00:00 NR 15.2311 119.814 main 24 15 __________P___ -1 15.2311 119.814 2 9 293
1915339N10131 1915 53 WP MM NOT_NAMED 1915-12-08 15:00:00 NR 15.3964 119.392 main 53 53 __________P___ -1 15.3964 119.392 2 9 291
1915339N10131 1915 53 WP MM NOT_NAMED 1915-12-08 18:00:00 NR 15.5351 118.988 main 93 93 __________P___ -1 15.5351 118.988 2 8 289
1915339N10131 1915 53 WP MM NOT_NAMED 1915-12-08 21:00:00 NR 15.6595 118.615 main 122 122 __________P___ -1 15.6595 118.615 2 7 289
1915339N10131 1915 53 WP MM NOT_NAMED 1915-12-08 22:00:00 NR 15.7000 118.500 main 132 132 __________O___ -1 15.7000 118.500 2 7 293
1915339N10131 1915 53 WP MM NOT_NAMED 1915-12-09 00:00:00 NR 15.7940 118.293 main 151 151 __________P___ -1 15.7940 118.293 2 6 296
1915339N10131 1915 53 WP MM NOT_NAMED 1915-12-09 03:00:00 NR 15.9289 118.015 main 182 181 __________P___ -1 15.9289 118.015 2 6 297
1915339N10131 1915 53 WP MM NOT_NAMED 1915-12-09 06:00:00 NR 16.0541 117.755 main 203 214 __________P___ -1 16.0541 117.755 2 6 295
1915339N10131 1915 53 WP MM NOT_NAMED 1915-12-09 09:00:00 NR 16.1661 117.492 main 236 236 __________P___ -1 16.1661 117.492 2 6 293
1915339N10131 1915 53 WP MM NOT_NAMED 1915-12-09 10:00:00 NR 16.2000 117.400 main 246 246 __________O___ -1 16.2000 117.400 2 6 289
1915339N10131 1915 53 WP MM NOT_NAMED 1915-12-09 12:00:00 NR 16.2622 117.206 main 269 269 __________P___ -1 16.2622 117.206 2 6 286
1915339N10131 1915 53 WP MM NOT_NAMED 1915-12-09 15:00:00 NR 16.3436 116.892 main 301 301 __________P___ -1 16.3436 116.892 2 6 284
1915339N10131 1915 53 WP MM NOT_NAMED 1915-12-09 18:00:00 NR 16.4145 116.559 main 334 344 __________P___ -1 16.4145 116.559 2 7 282
1915339N10131 1915 53 WP MM NOT_NAMED 1915-12-09 21:00:00 NR 16.4791 116.216 main 377 377 __________P___ -1 16.4791 116.216 2 7 281
1915339N10131 1915 53 WP MM NOT_NAMED 1915-12-09 22:00:00 NR 16.5000 116.100 main 388 __________O___ -1 16.5000 116.100 7 7 281

デジタル台風データ・検索

IBTrACS Databaseについて

本データベースは、米国NOAAが公開する1842年以降の世界の熱帯低気圧のベストトラックデータアーカイブInternational Best Track Archive for Climate Stewardship (IBTrACS)を、ウェブで閲覧しやすい形式に変換したものです。

最終更新日:2021-12-06